Time;durP1;ratioP1;P1;durP2;ratioP2;P2;SDS_P1;SDS_P2;PMS_P1;PMS_P2;Temp;Humidity;BMP_temperature;BMP_pressure;BME280_temperature;BME280_humidity;BME280_pressure;Samples;Min_cycle;Max_cycle;Signal;HPM_P1;HPM_P2
2023/09/10 00:01:25;;;;;;;;;;;22.40;99.90;;;;;;4994803;28;20361;-54
2023/09/10 00:03:50;;;;;;;;;;;22.40;99.90;;;;;;4997307;28;19906;-52
2023/09/10 00:06:16;;;;;;;;;;;22.30;99.90;;;;;;4994937;28;19913;-53
2023/09/10 00:08:41;;;;;;;;;;;22.30;99.90;;;;;;4997911;28;19910;-53
2023/09/10 00:11:07;;;;;;;;;;;22.40;99.90;;;;;;4996942;28;19906;-52
2023/09/10 00:13:32;;;;;;;;;;;22.30;99.90;;;;;;4992953;28;19916;-52
2023/09/10 00:15:58;;;;;;;;;;;22.30;99.90;;;;;;4994581;28;19912;-52
2023/09/10 00:18:23;;;;;;;;;;;22.30;99.90;;;;;;4997242;28;19909;-53
2023/09/10 00:20:52;;;;;;;;;;;22.30;99.90;;;;;;4996527;28;20259;-54
2023/09/10 00:23:18;;;;;;;;;;;22.30;99.90;;;;;;4996831;28;19916;-53
2023/09/10 00:25:43;;;;;;;;;;;22.20;99.90;;;;;;4996847;28;19914;-54
2023/09/10 00:28:09;;;;;;;;;;;22.20;99.90;;;;;;4992804;28;19914;-53
2023/09/10 00:30:35;;;;;;;;;;;22.20;99.90;;;;;;4996639;28;20012;-41
2023/09/10 00:33:00;;;;;;;;;;;22.20;99.90;;;;;;4997292;28;20366;-45
2023/09/10 00:35:26;;;;;;;;;;;22.20;99.90;;;;;;4996528;28;20366;-42
2023/09/10 00:37:52;;;;;;;;;;;22.10;99.90;;;;;;4996262;28;19917;-40
2023/09/10 00:40:17;;;;;;;;;;;22.10;99.90;;;;;;4995593;28;20355;-39
2023/09/10 00:42:43;;;;;;;;;;;22.10;99.90;;;;;;4976093;28;19941;-41
2023/09/10 00:45:10;;;;;;;;;;;22.10;99.90;;;;;;4979489;28;19910;-53
2023/09/10 00:47:37;;;;;;;;;;;22.00;99.90;;;;;;4987190;28;20322;-54
2023/09/10 00:50:03;;;;;;;;;;;22.10;99.90;;;;;;4995701;28;19909;-42
2023/09/10 00:52:29;;;;;;;;;;;22.00;99.90;;;;;;4996956;28;19909;-41
2023/09/10 00:54:54;;;;;;;;;;;22.00;99.90;;;;;;4995981;28;19909;-41
2023/09/10 00:57:20;;;;;;;;;;;22.00;99.90;;;;;;4995675;28;20770;-40
2023/09/10 00:59:46;;;;;;;;;;;22.10;99.90;;;;;;4996281;28;20374;-40
2023/09/10 01:02:13;;;;;;;;;;;22.10;99.90;;;;;;4979277;28;19914;-40
2023/09/10 01:04:39;;;;;;;;;;;22.10;99.90;;;;;;4987535;28;20406;-42
2023/09/10 01:07:05;;;;;;;;;;;22.10;99.90;;;;;;4980319;28;19910;-42
2023/09/10 01:09:31;;;;;;;;;;;22.10;99.90;;;;;;4977088;28;20385;-40
2023/09/10 01:12:20;;;;;;;;;;;22.10;99.90;;;;;;4994889;28;19910;-40
2023/09/10 01:14:51;;;;;;;;;;;22.10;99.90;;;;;;4995405;28;19909;-41
2023/09/10 01:17:23;;;;;;;;;;;22.10;99.90;;;;;;4994446;28;20032;-40
2023/09/10 01:19:58;;;;;;;;;;;22.00;99.90;;;;;;4983961;28;19914;-40
2023/09/10 01:22:23;;;;;;;;;;;22.00;99.90;;;;;;4989465;28;19957;-43
2023/09/10 01:24:50;;;;;;;;;;;22.00;99.90;;;;;;4996235;28;20326;-54
2023/09/10 01:27:16;;;;;;;;;;;22.00;99.90;;;;;;4995844;28;20381;-53
2023/09/10 01:29:42;;;;;;;;;;;22.00;99.90;;;;;;4995820;28;19910;-51
2023/09/10 01:32:14;;;;;;;;;;;22.00;99.90;;;;;;4995284;28;19916;-56
2023/09/10 01:34:44;;;;;;;;;;;21.90;99.90;;;;;;4996053;28;19914;-60
2023/09/10 01:37:21;;;;;;;;;;;22.00;99.90;;;;;;4994744;28;19953;-54
2023/09/10 01:39:50;;;;;;;;;;;22.00;99.90;;;;;;4995983;28;20385;-53
2023/09/10 01:42:15;;;;;;;;;;;21.90;99.90;;;;;;4995125;28;19909;-54
2023/09/10 01:44:41;;;;;;;;;;;21.90;99.90;;;;;;4996172;28;19917;-52
2023/09/10 01:47:07;;;;;;;;;;;22.00;99.90;;;;;;4994415;28;19910;-54
2023/09/10 01:49:32;;;;;;;;;;;22.00;99.90;;;;;;4994136;28;19917;-41
2023/09/10 01:51:58;;;;;;;;;;;22.00;99.90;;;;;;4995833;28;19909;-43
2023/09/10 01:54:23;;;;;;;;;;;22.00;99.90;;;;;;4995785;28;20330;-43
2023/09/10 01:56:49;;;;;;;;;;;22.00;99.90;;;;;;4995711;28;19920;-46
2023/09/10 01:59:14;;;;;;;;;;;22.00;99.90;;;;;;4994783;28;20363;-40
2023/09/10 02:01:40;;;;;;;;;;;22.00;99.90;;;;;;4988435;28;19944;-42
2023/09/10 02:04:05;;;;;;;;;;;22.10;99.90;;;;;;4988538;28;19913;-42
2023/09/10 02:06:31;;;;;;;;;;;22.10;99.90;;;;;;4993904;28;19916;-47
2023/09/10 02:08:57;;;;;;;;;;;22.10;99.90;;;;;;4990328;28;20290;-41
2023/09/10 02:11:22;;;;;;;;;;;22.10;99.90;;;;;;4992536;28;19956;-54
2023/09/10 02:13:48;;;;;;;;;;;22.10;99.90;;;;;;4994483;28;19910;-54
2023/09/10 02:16:14;;;;;;;;;;;22.10;99.90;;;;;;4994360;28;19910;-53
2023/09/10 02:18:39;;;;;;;;;;;22.00;99.90;;;;;;4994510;28;19925;-54
2023/09/10 02:21:09;;;;;;;;;;;22.10;99.90;;;;;;4986351;28;19910;-54
2023/09/10 02:23:34;;;;;;;;;;;22.10;99.90;;;;;;4994953;28;19964;-54
2023/09/10 02:26:00;;;;;;;;;;;22.10;99.90;;;;;;4995224;28;19941;-53
2023/09/10 02:28:26;;;;;;;;;;;22.10;99.90;;;;;;4993887;28;20016;-55
2023/09/10 02:30:52;;;;;;;;;;;22.10;99.90;;;;;;4993711;28;20357;-54
2023/09/10 02:33:18;;;;;;;;;;;22.20;99.90;;;;;;4995078;28;19985;-54
2023/09/10 02:35:43;;;;;;;;;;;22.20;99.90;;;;;;4995249;28;19910;-51
2023/09/10 02:38:09;;;;;;;;;;;22.20;99.90;;;;;;4993992;28;19913;-52
2023/09/10 02:40:34;;;;;;;;;;;22.20;99.90;;;;;;4993751;28;19913;-50
2023/09/10 02:43:00;;;;;;;;;;;22.20;99.90;;;;;;4994625;28;19918;-54
2023/09/10 02:45:25;;;;;;;;;;;22.10;99.90;;;;;;4994000;28;19937;-55
2023/09/10 02:47:50;;;;;;;;;;;22.10;99.90;;;;;;4961228;28;20337;-54
2023/09/10 02:50:16;;;;;;;;;;;22.10;99.90;;;;;;4994717;28;20008;-54
2023/09/10 02:52:42;;;;;;;;;;;22.10;99.90;;;;;;4993350;28;19975;-51
2023/09/10 02:55:07;;;;;;;;;;;22.10;99.90;;;;;;4994174;28;19916;-54
2023/09/10 02:57:33;;;;;;;;;;;22.10;99.90;;;;;;4994122;28;19916;-53
2023/09/10 02:59:58;;;;;;;;;;;22.10;99.90;;;;;;4993763;28;19921;-54
2023/09/10 03:02:24;;;;;;;;;;;22.00;99.90;;;;;;4994514;28;19956;-54
2023/09/10 03:04:49;;;;;;;;;;;22.00;99.90;;;;;;4993703;28;20438;-54
2023/09/10 03:07:15;;;;;;;;;;;22.00;99.90;;;;;;4994196;28;19916;-43
2023/09/10 03:09:40;;;;;;;;;;;22.00;99.90;;;;;;4993622;28;20313;-54
2023/09/10 03:12:19;;;;;;;;;;;21.90;99.90;;;;;;4991646;28;19917;-54
2023/09/10 03:14:45;;;;;;;;;;;22.00;99.90;;;;;;4993849;28;20371;-51
2023/09/10 03:17:11;;;;;;;;;;;21.90;99.90;;;;;;4984372;28;19947;-53
2023/09/10 03:19:37;;;;;;;;;;;21.90;99.90;;;;;;4988377;28;19914;-54
2023/09/10 03:22:03;;;;;;;;;;;21.90;99.90;;;;;;4992935;28;19981;-57
2023/09/10 03:24:28;;;;;;;;;;;21.90;99.90;;;;;;4989841;28;19961;-54
2023/09/10 03:26:54;;;;;;;;;;;21.90;99.90;;;;;;4993175;28;19991;-51
2023/09/10 03:29:19;;;;;;;;;;;21.90;99.90;;;;;;4993670;28;19906;-54
2023/09/10 03:31:45;;;;;;;;;;;21.90;99.90;;;;;;4993086;28;19924;-54
2023/09/10 03:34:11;;;;;;;;;;;21.80;99.90;;;;;;4994295;28;20019;-53
2023/09/10 03:36:36;;;;;;;;;;;21.90;99.90;;;;;;4975833;28;19933;-52
2023/09/10 03:39:03;;;;;;;;;;;21.90;99.90;;;;;;4993224;28;19914;-54
2023/09/10 03:41:28;;;;;;;;;;;21.80;99.90;;;;;;4993955;28;19906;-53
2023/09/10 03:43:55;;;;;;;;;;;21.90;99.90;;;;;;4993014;28;19960;-52
2023/09/10 03:46:20;;;;;;;;;;;21.90;99.90;;;;;;4992669;28;19910;-52
2023/09/10 03:48:46;;;;;;;;;;;21.90;99.90;;;;;;4993312;28;19956;-53
2023/09/10 03:51:11;;;;;;;;;;;21.80;99.90;;;;;;4993327;28;19917;-54
2023/09/10 03:53:37;;;;;;;;;;;21.80;99.90;;;;;;4993257;28;19964;-52
2023/09/10 03:56:02;;;;;;;;;;;21.80;99.90;;;;;;4993472;28;19909;-51
2023/09/10 03:58:28;;;;;;;;;;;21.80;99.90;;;;;;4993973;28;20424;-54
2023/09/10 04:00:54;;;;;;;;;;;21.80;99.90;;;;;;4992835;28;19917;-52
2023/09/10 04:03:19;;;;;;;;;;;21.80;99.90;;;;;;4986306;28;20004;-54
2023/09/10 04:05:45;;;;;;;;;;;21.70;99.90;;;;;;4993246;28;20354;-52
2023/09/10 04:08:10;;;;;;;;;;;21.70;99.90;;;;;;4993663;28;19917;-57
2023/09/10 04:10:36;;;;;;;;;;;21.70;99.90;;;;;;4993629;28;19928;-54
2023/09/10 04:13:01;;;;;;;;;;;21.70;99.90;;;;;;4993008;28;19928;-53
2023/09/10 04:15:27;;;;;;;;;;;21.70;99.90;;;;;;4993146;28;19917;-52
2023/09/10 04:17:53;;;;;;;;;;;21.60;99.90;;;;;;4981353;28;19906;-53
2023/09/10 04:20:20;;;;;;;;;;;21.60;99.90;;;;;;4993298;28;19960;-54
2023/09/10 04:22:47;;;;;;;;;;;21.60;99.90;;;;;;4992441;28;19960;-53
2023/09/10 04:25:12;;;;;;;;;;;21.60;99.90;;;;;;4992784;28;20005;-54
2023/09/10 04:27:38;;;;;;;;;;;21.60;99.90;;;;;;4989332;28;20055;-49
2023/09/10 04:30:04;;;;;;;;;;;21.60;99.90;;;;;;4967450;28;19913;-48
2023/09/10 04:32:30;;;;;;;;;;;21.60;99.90;;;;;;4991263;28;20330;-56
2023/09/10 04:34:55;;;;;;;;;;;21.60;99.90;;;;;;4987286;28;19906;-54
2023/09/10 04:37:21;;;;;;;;;;;21.60;99.90;;;;;;4993106;28;20374;-55
2023/09/10 04:39:46;;;;;;;;;;;21.70;99.90;;;;;;4992637;28;20450;-55
2023/09/10 04:42:12;;;;;;;;;;;21.70;99.90;;;;;;4992359;28;19910;-54
2023/09/10 04:44:37;;;;;;;;;;;21.70;99.90;;;;;;4993423;28;19989;-54
2023/09/10 04:47:03;;;;;;;;;;;21.70;99.90;;;;;;4992639;28;19916;-54
2023/09/10 04:49:29;;;;;;;;;;;21.70;99.90;;;;;;4996946;28;19961;-54
2023/09/10 04:51:54;;;;;;;;;;;21.70;99.90;;;;;;4996597;28;19944;-54
2023/09/10 04:54:20;;;;;;;;;;;21.60;99.90;;;;;;4996802;28;19906;-52
2023/09/10 04:56:50;;;;;;;;;;;21.60;99.90;;;;;;4995883;28;20040;-47
2023/09/10 04:59:15;;;;;;;;;;;21.60;99.90;;;;;;4977285;28;19914;-39
2023/09/10 05:01:41;;;;;;;;;;;21.60;99.90;;;;;;4978740;28;19996;-40
2023/09/10 05:04:06;;;;;;;;;;;21.60;99.90;;;;;;4996157;28;19905;-49
2023/09/10 05:06:32;;;;;;;;;;;21.60;99.90;;;;;;4977504;28;20041;-45
2023/09/10 05:08:58;;;;;;;;;;;21.50;99.90;;;;;;4983929;28;19909;-43
2023/09/10 05:11:23;;;;;;;;;;;21.60;99.90;;;;;;4996418;28;19905;-42
2023/09/10 05:13:49;;;;;;;;;;;21.60;99.90;;;;;;4996334;28;19917;-46
2023/09/10 05:16:14;;;;;;;;;;;21.60;99.90;;;;;;4995400;28;20355;-41
2023/09/10 05:18:40;;;;;;;;;;;21.60;99.90;;;;;;4987063;28;20115;-39
2023/09/10 05:21:05;;;;;;;;;;;21.60;99.90;;;;;;4977223;28;19913;-40
2023/09/10 05:23:34;;;;;;;;;;;21.60;99.90;;;;;;4994142;28;19917;-43
2023/09/10 05:26:03;;;;;;;;;;;21.60;99.90;;;;;;4996190;28;19944;-45
2023/09/10 05:28:29;;;;;;;;;;;21.60;99.90;;;;;;4995438;28;19913;-42
2023/09/10 05:30:54;;;;;;;;;;;21.60;99.90;;;;;;4994674;28;19916;-41
2023/09/10 05:33:20;;;;;;;;;;;21.60;99.90;;;;;;4996140;28;20414;-41
2023/09/10 05:35:58;;;;;;;;;;;21.50;99.90;;;;;;4972075;28;19956;-40
2023/09/10 05:38:24;;;;;;;;;;;21.50;99.90;;;;;;4995272;28;19910;-42
2023/09/10 05:40:50;;;;;;;;;;;21.50;99.90;;;;;;4996300;28;19906;-43
2023/09/10 05:43:16;;;;;;;;;;;21.60;99.90;;;;;;4994196;28;19960;-41
2023/09/10 05:45:41;;;;;;;;;;;21.60;99.90;;;;;;4988110;28;19913;-46
2023/09/10 05:48:07;;;;;;;;;;;21.60;99.90;;;;;;4995192;28;20354;-43
2023/09/10 05:50:32;;;;;;;;;;;21.70;99.90;;;;;;4988426;28;19909;-47
2023/09/10 05:52:59;;;;;;;;;;;21.70;99.90;;;;;;4993367;28;19909;-41
2023/09/10 05:55:25;;;;;;;;;;;21.70;99.90;;;;;;4991367;28;19916;-42
2023/09/10 05:57:52;;;;;;;;;;;21.70;99.90;;;;;;4995466;28;20341;-40
2023/09/10 06:00:17;;;;;;;;;;;21.70;99.90;;;;;;4993712;28;19917;-42
2023/09/10 06:02:43;;;;;;;;;;;21.80;99.90;;;;;;4993654;28;20328;-40
2023/09/10 06:05:08;;;;;;;;;;;21.80;99.90;;;;;;4993997;28;19928;-53
2023/09/10 06:07:34;;;;;;;;;;;21.90;99.90;;;;;;4995514;28;20003;-54
2023/09/10 06:09:59;;;;;;;;;;;21.90;99.90;;;;;;4995533;28;20044;-53
2023/09/10 06:12:25;;;;;;;;;;;21.90;99.90;;;;;;4994813;28;20413;-55
2023/09/10 06:14:50;;;;;;;;;;;22.00;99.90;;;;;;4994559;28;19910;-54
2023/09/10 06:17:16;;;;;;;;;;;22.00;99.90;;;;;;4994904;28;19906;-54
2023/09/10 06:19:41;;;;;;;;;;;22.10;99.90;;;;;;4994952;28;20252;-54
2023/09/10 06:22:07;;;;;;;;;;;22.10;99.90;;;;;;4994524;28;19906;-52
2023/09/10 06:24:33;;;;;;;;;;;22.20;99.90;;;;;;4994514;28;19910;-55
2023/09/10 06:26:58;;;;;;;;;;;22.30;99.90;;;;;;4995205;28;20378;-54
2023/09/10 06:29:24;;;;;;;;;;;22.30;99.90;;;;;;4994420;28;19909;-51
2023/09/10 06:31:49;;;;;;;;;;;22.40;99.90;;;;;;4980667;28;19910;-52
2023/09/10 06:34:15;;;;;;;;;;;22.40;99.90;;;;;;4977009;28;20382;-53
2023/09/10 06:36:42;;;;;;;;;;;22.40;99.90;;;;;;4994546;28;19921;-54
2023/09/10 06:39:07;;;;;;;;;;;22.40;99.90;;;;;;4993834;28;20417;-55
2023/09/10 06:41:33;;;;;;;;;;;22.50;99.90;;;;;;4994586;28;20358;-53
2023/09/10 06:43:58;;;;;;;;;;;22.60;99.90;;;;;;5001066;28;19921;-55
2023/09/10 06:46:24;;;;;;;;;;;22.70;99.90;;;;;;4992857;28;19910;-52
2023/09/10 06:48:49;;;;;;;;;;;22.80;99.90;;;;;;4994713;28;19963;-54
2023/09/10 06:51:15;;;;;;;;;;;22.80;99.90;;;;;;4994257;28;20351;-55
2023/09/10 06:53:40;;;;;;;;;;;22.80;99.90;;;;;;4993032;28;19914;-54
2023/09/10 06:56:06;;;;;;;;;;;23.00;99.90;;;;;;4986776;28;19913;-39
2023/09/10 06:58:31;;;;;;;;;;;23.00;99.90;;;;;;4989317;28;20343;-40
2023/09/10 07:01:02;;;;;;;;;;;23.10;99.90;;;;;;4992188;28;19909;-40
2023/09/10 07:03:28;;;;;;;;;;;23.20;99.90;;;;;;4993465;28;19920;-46
2023/09/10 07:05:53;;;;;;;;;;;23.30;99.90;;;;;;4992221;28;19910;-44
2023/09/10 07:08:19;;;;;;;;;;;23.40;99.90;;;;;;4993777;28;19917;-42
2023/09/10 07:10:45;;;;;;;;;;;23.50;99.90;;;;;;4993555;28;20279;-40
2023/09/10 07:13:10;;;;;;;;;;;23.60;99.90;;;;;;4993857;28;19910;-40
2023/09/10 07:15:36;;;;;;;;;;;23.60;99.90;;;;;;4992779;28;19910;-40
2023/09/10 07:18:03;;;;;;;;;;;23.70;99.90;;;;;;4994289;28;19909;-45
2023/09/10 07:20:29;;;;;;;;;;;23.90;99.90;;;;;;4992382;28;20370;-42
2023/09/10 07:22:54;;;;;;;;;;;24.00;99.90;;;;;;4993443;28;19916;-43
2023/09/10 07:25:20;;;;;;;;;;;24.10;99.90;;;;;;4992896;28;20368;-44
2023/09/10 07:27:45;;;;;;;;;;;24.20;99.90;;;;;;4992723;28;19914;-41
2023/09/10 07:30:14;;;;;;;;;;;24.20;99.90;;;;;;4992731;28;20382;-41
2023/09/10 07:32:41;;;;;;;;;;;24.30;99.90;;;;;;4994257;28;20394;-41
2023/09/10 07:35:07;;;;;;;;;;;24.40;99.90;;;;;;4990948;28;19909;-41
2023/09/10 07:37:33;;;;;;;;;;;24.50;99.90;;;;;;4991919;28;19956;-41
2023/09/10 07:39:58;;;;;;;;;;;24.50;99.90;;;;;;4988524;28;19956;-41
2023/09/10 07:42:24;;;;;;;;;;;24.60;99.90;;;;;;4987095;28;19962;-41
2023/09/10 07:44:49;;;;;;;;;;;24.70;99.90;;;;;;4993154;28;19921;-55
2023/09/10 07:47:15;;;;;;;;;;;24.80;99.90;;;;;;4993965;28;20270;-51
2023/09/10 07:49:40;;;;;;;;;;;24.80;99.90;;;;;;4992454;28;20012;-54
2023/09/10 07:52:06;;;;;;;;;;;24.90;99.90;;;;;;4993150;28;19910;-43
2023/09/10 07:54:32;;;;;;;;;;;25.10;99.90;;;;;;4982679;28;19913;-42
2023/09/10 07:56:57;;;;;;;;;;;25.10;99.90;;;;;;4975425;28;20060;-44
2023/09/10 07:59:23;;;;;;;;;;;25.20;99.90;;;;;;4993025;28;19921;-44
2023/09/10 08:01:49;;;;;;;;;;;25.40;99.90;;;;;;4993060;28;19913;-43
2023/09/10 08:04:15;;;;;;;;;;;25.40;99.90;;;;;;4995575;28;20370;-53
2023/09/10 08:06:40;;;;;;;;;;;25.50;99.90;;;;;;4991653;28;19914;-55
2023/09/10 08:09:06;;;;;;;;;;;25.70;99.90;;;;;;4992926;28;20414;-56
2023/09/10 08:11:31;;;;;;;;;;;25.70;99.90;;;;;;4991098;28;19918;-55
2023/09/10 08:13:57;;;;;;;;;;;25.80;99.90;;;;;;4990226;28;19910;-55
2023/09/10 08:16:23;;;;;;;;;;;25.80;99.90;;;;;;4992339;28;19910;-47
2023/09/10 08:18:48;;;;;;;;;;;25.90;99.90;;;;;;4989505;28;20394;-56
2023/09/10 08:21:14;;;;;;;;;;;26.00;99.90;;;;;;4990809;28;20386;-59
2023/09/10 08:23:40;;;;;;;;;;;26.10;99.90;;;;;;4997078;28;20389;-55
2023/09/10 08:26:05;;;;;;;;;;;26.20;99.90;;;;;;4995665;28;19953;-53
2023/09/10 08:28:31;;;;;;;;;;;26.20;99.90;;;;;;4997349;28;20289;-54
2023/09/10 08:30:57;;;;;;;;;;;26.30;99.90;;;;;;4995630;28;20359;-54
2023/09/10 08:33:24;;;;;;;;;;;26.50;99.90;;;;;;4997040;28;19940;-54
2023/09/10 08:35:50;;;;;;;;;;;26.60;99.90;;;;;;4978017;28;19910;-53
2023/09/10 08:38:16;;;;;;;;;;;26.70;99.90;;;;;;4992245;28;19910;-55
2023/09/10 08:40:44;;;;;;;;;;;26.80;99.90;;;;;;4995479;28;19965;-55
2023/09/10 08:43:11;;;;;;;;;;;26.90;99.90;;;;;;4996112;28;19918;-54
2023/09/10 08:45:36;;;;;;;;;;;26.90;99.90;;;;;;4997169;28;19973;-55
2023/09/10 08:48:02;;;;;;;;;;;27.00;99.90;;;;;;4995427;28;20367;-46
2023/09/10 08:50:29;;;;;;;;;;;27.10;99.90;;;;;;4995080;28;19909;-41
2023/09/10 08:52:57;;;;;;;;;;;27.10;99.90;;;;;;4977651;28;19946;-44
2023/09/10 08:55:22;;;;;;;;;;;27.20;99.90;;;;;;4996098;28;20045;-42
2023/09/10 08:57:49;;;;;;;;;;;27.30;99.90;;;;;;4996604;28;20391;-43
2023/09/10 09:00:15;;;;;;;;;;;27.30;99.90;;;;;;4996373;28;19920;-45
2023/09/10 09:02:45;;;;;;;;;;;27.40;99.90;;;;;;4996260;28;19910;-46
2023/09/10 09:05:11;;;;;;;;;;;27.50;99.90;;;;;;4996309;28;19916;-47
2023/09/10 09:07:52;;;;;;;;;;;27.60;99.90;;;;;;4995860;28;19910;-43
2023/09/10 09:10:21;;;;;;;;;;;27.70;99.90;;;;;;4995906;28;19914;-41
2023/09/10 09:12:48;;;;;;;;;;;27.70;99.90;;;;;;4995497;28;19913;-40
2023/09/10 09:15:14;;;;;;;;;;;27.80;99.90;;;;;;4996067;28;19937;-42
2023/09/10 09:17:40;;;;;;;;;;;27.90;99.90;;;;;;4995342;28;19913;-42
2023/09/10 09:20:10;;;;;;;;;;;28.00;99.90;;;;;;4988817;28;19921;-42
2023/09/10 09:22:36;;;;;;;;;;;28.20;99.90;;;;;;4988256;28;19916;-42
2023/09/10 09:25:03;;;;;;;;;;;28.20;99.90;;;;;;4994101;28;19910;-43
2023/09/10 09:27:28;;;;;;;;;;;28.30;99.90;;;;;;4995130;28;19956;-42
2023/09/10 09:29:54;;;;;;;;;;;28.40;99.90;;;;;;4994447;28;19909;-44
2023/09/10 09:32:19;;;;;;;;;;;28.50;99.90;;;;;;4995690;28;20366;-40
2023/09/10 09:34:45;;;;;;;;;;;28.70;99.90;;;;;;4993132;28;19910;-43
2023/09/10 09:37:16;;;;;;;;;;;28.70;99.90;;;;;;4995544;28;19913;-39
2023/09/10 09:39:45;;;;;;;;;;;28.60;99.90;;;;;;4985500;28;19921;-40
2023/09/10 09:42:10;;;;;;;;;;;28.70;99.90;;;;;;4986157;28;19910;-41
2023/09/10 09:44:36;;;;;;;;;;;28.70;99.90;;;;;;4978658;28;19913;-43
2023/09/10 09:47:02;;;;;;;;;;;28.90;99.90;;;;;;4973647;28;20501;-41
2023/09/10 09:49:27;;;;;;;;;;;29.10;99.90;;;;;;4985640;28;19910;-41
2023/09/10 09:51:53;;;;;;;;;;;29.20;99.90;;;;;;4992712;28;20420;-43
2023/09/10 09:54:19;;;;;;;;;;;29.30;99.90;;;;;;4995240;28;19921;-46
2023/09/10 09:56:46;;;;;;;;;;;29.40;99.90;;;;;;4995478;28;20279;-47
2023/09/10 09:59:11;;;;;;;;;;;29.40;99.90;;;;;;4994266;28;19913;-40
2023/09/10 10:01:38;;;;;;;;;;;29.50;99.90;;;;;;4995207;28;19917;-45
2023/09/10 10:04:04;;;;;;;;;;;29.50;99.90;;;;;;4991248;28;20385;-41
2023/09/10 10:06:31;;;;;;;;;;;29.70;99.90;;;;;;4994974;28;19910;-44
2023/09/10 10:08:56;;;;;;;;;;;29.70;99.90;;;;;;4994862;28;19916;-43
2023/09/10 10:11:31;;;;;;;;;;;29.90;99.90;;;;;;4994041;28;20382;-42
2023/09/10 10:13:59;;;;;;;;;;;30.00;99.90;;;;;;4994427;28;20475;-43
2023/09/10 10:16:28;;;;;;;;;;;30.00;99.90;;;;;;4994482;28;19910;-44
2023/09/10 10:18:54;;;;;;;;;;;30.10;99.90;;;;;;4994222;28;19914;-40
2023/09/10 10:21:21;;;;;;;;;;;30.20;99.90;;;;;;4994656;28;19914;-42
2023/09/10 10:23:47;;;;;;;;;;;30.20;99.90;;;;;;4993808;28;19956;-41
2023/09/10 10:26:14;;;;;;;;;;;30.30;99.90;;;;;;4995266;28;19910;-39
2023/09/10 10:28:40;;;;;;;;;;;30.50;99.90;;;;;;4992795;28;19965;-45
2023/09/10 10:31:06;;;;;;;;;;;30.60;99.90;;;;;;4977771;28;20370;-42
2023/09/10 10:33:33;;;;;;;;;;;30.60;99.90;;;;;;4993498;28;19956;-42
2023/09/10 10:35:59;;;;;;;;;;;30.70;99.90;;;;;;4992908;28;19916;-41
2023/09/10 10:38:27;;;;;;;;;;;30.80;99.90;;;;;;4994836;28;19910;-45
2023/09/10 10:40:53;;;;;;;;;;;30.80;99.90;;;;;;4994746;28;20016;-44
2023/09/10 10:43:29;;;;;;;;;;;30.90;99.90;;;;;;4976240;28;19964;-39
2023/09/10 10:45:56;;;;;;;;;;;30.90;99.90;;;;;;4994590;28;20008;-42
2023/09/10 10:48:24;;;;;;;;;;;31.10;99.90;;;;;;4994265;28;19910;-41
2023/09/10 10:50:51;;;;;;;;;;;31.10;99.90;;;;;;4991625;28;19914;-44
2023/09/10 10:53:20;;;;;;;;;;;31.20;99.90;;;;;;4991873;28;20363;-43
2023/09/10 10:55:48;;;;;;;;;;;31.20;99.90;;;;;;4994669;28;19909;-42
2023/09/10 10:58:13;;;;;;;;;;;31.20;99.90;;;;;;4993886;28;19913;-40
2023/09/10 11:00:39;;;;;;;;;;;31.20;99.90;;;;;;4994343;28;19918;-41
2023/09/10 11:03:11;;;;;;;;;;;31.20;99.90;;;;;;4992748;28;19937;-43
2023/09/10 11:05:52;;;;;;;;;;;31.30;99.90;;;;;;4993588;28;19909;-44
2023/09/10 11:08:27;;;;;;;;;;;31.40;99.90;;;;;;4988862;28;19910;-42
2023/09/10 11:10:52;;;;;;;;;;;31.30;99.90;;;;;;4993970;28;19909;-41
2023/09/10 11:13:18;;;;;;;;;;;31.40;99.90;;;;;;4992826;28;20286;-44
2023/09/10 11:16:04;;;;;;;;;;;31.60;99.90;;;;;;4992608;28;20404;-41
2023/09/10 11:18:35;;;;;;;;;;;31.70;99.90;;;;;;4974200;28;19920;-40
2023/09/10 11:21:01;;;;;;;;;;;31.60;99.90;;;;;;4993127;28;20009;-41
2023/09/10 11:23:27;;;;;;;;;;;31.70;99.90;;;;;;4993170;28;19916;-45
2023/09/10 11:25:53;;;;;;;;;;;31.90;99.90;;;;;;4992147;28;19914;-40
2023/09/10 11:28:38;;;;;;;;;;;31.90;99.90;;;;;;4992772;28;20004;-44
2023/09/10 11:31:04;;;;;;;;;;;31.90;99.90;;;;;;4993619;28;20310;-40
2023/09/10 11:33:30;;;;;;;;;;;32.10;99.90;;;;;;4992566;28;20000;-40
2023/09/10 11:35:58;;;;;;;;;;;32.10;99.90;;;;;;4992779;28;19945;-41
2023/09/10 11:38:30;;;;;;;;;;;32.30;99.90;;;;;;4984104;28;19917;-39
2023/09/10 11:40:56;;;;;;;;;;;32.30;99.90;;;;;;4976711;28;19914;-44
2023/09/10 11:43:22;;;;;;;;;;;32.50;99.90;;;;;;4989425;28;19922;-42
2023/09/10 11:45:48;;;;;;;;;;;32.50;99.90;;;;;;4983345;28;19985;-40
2023/09/10 11:48:13;;;;;;;;;;;32.60;99.90;;;;;;4983628;28;20357;-50
2023/09/10 11:50:39;;;;;;;;;;;32.60;99.90;;;;;;4991198;28;19917;-43
2023/09/10 11:53:05;;;;;;;;;;;32.70;99.90;;;;;;4991298;28;19956;-43
2023/09/10 11:55:30;;;;;;;;;;;32.70;99.90;;;;;;4992948;28;19910;-42
2023/09/10 11:57:56;;;;;;;;;;;32.70;99.90;;;;;;4992436;28;19910;-43
2023/09/10 12:00:22;;;;;;;;;;;32.70;99.90;;;;;;4991490;28;20342;-40
2023/09/10 12:02:47;;;;;;;;;;;32.80;99.90;;;;;;4993704;28;19956;-43
2023/09/10 12:05:13;;;;;;;;;;;32.80;99.90;;;;;;4993660;28;20355;-41
2023/09/10 12:07:43;;;;;;;;;;;32.90;99.90;;;;;;4993678;28;19914;-41
2023/09/10 12:10:09;;;;;;;;;;;32.80;99.90;;;;;;4994008;28;19910;-40
2023/09/10 12:12:35;;;;;;;;;;;32.90;99.90;;;;;;4993928;28;19909;-54
2023/09/10 12:15:02;;;;;;;;;;;33.00;99.90;;;;;;4993545;28;19910;-55
2023/09/10 12:17:27;;;;;;;;;;;33.00;99.90;;;;;;4993129;28;19917;-55
2023/09/10 12:19:53;;;;;;;;;;;33.20;99.90;;;;;;4992164;28;19913;-51
2023/09/10 12:22:19;;;;;;;;;;;33.20;99.90;;;;;;4993867;28;19993;-45
2023/09/10 12:24:45;;;;;;;;;;;33.20;99.90;;;;;;4993283;28;19914;-41
2023/09/10 12:27:13;;;;;;;;;;;33.30;99.90;;;;;;4993243;28;19910;-40
2023/09/10 12:29:41;;;;;;;;;;;33.40;99.90;;;;;;4993328;28;19933;-40
2023/09/10 12:32:07;;;;;;;;;;;33.40;99.90;;;;;;4993134;28;19917;-41
2023/09/10 12:34:33;;;;;;;;;;;33.30;99.90;;;;;;4975754;28;20138;-43
2023/09/10 12:36:59;;;;;;;;;;;33.40;99.90;;;;;;4993484;28;19921;-43
2023/09/10 12:39:26;;;;;;;;;;;33.40;99.90;;;;;;4991537;28;19913;-41
2023/09/10 12:42:03;;;;;;;;;;;33.50;99.90;;;;;;4993262;28;19932;-42
2023/09/10 12:44:30;;;;;;;;;;;33.50;99.90;;;;;;4991384;28;19975;-40
2023/09/10 12:46:57;;;;;;;;;;;33.50;99.90;;;;;;4989138;28;20379;-44
2023/09/10 12:49:23;;;;;;;;;;;33.50;99.90;;;;;;4992864;28;19909;-45
2023/09/10 12:51:48;;;;;;;;;;;33.40;99.90;;;;;;4992666;28;19914;-47
2023/09/10 12:54:14;;;;;;;;;;;33.40;99.90;;;;;;4993291;28;20394;-43
2023/09/10 12:56:41;;;;;;;;;;;33.30;99.90;;;;;;4993221;28;19964;-42
2023/09/10 12:59:07;;;;;;;;;;;33.30;99.90;;;;;;4993280;28;20389;-45
2023/09/10 13:01:33;;;;;;;;;;;33.40;99.90;;;;;;4992927;28;20000;-48
2023/09/10 13:03:58;;;;;;;;;;;33.50;99.90;;;;;;4992100;28;20514;-41
2023/09/10 13:06:24;;;;;;;;;;;33.70;99.90;;;;;;4989295;28;19917;-42
2023/09/10 13:08:49;;;;;;;;;;;33.90;99.90;;;;;;4993965;28;19910;-46
2023/09/10 13:11:15;;;;;;;;;;;33.80;99.90;;;;;;4996215;28;19917;-40
2023/09/10 13:13:40;;;;;;;;;;;33.80;99.90;;;;;;4996795;28;19964;-43
2023/09/10 13:16:06;;;;;;;;;;;33.80;99.90;;;;;;4994459;28;20008;-46
2023/09/10 13:18:31;;;;;;;;;;;33.70;99.90;;;;;;4993750;28;20412;-45
2023/09/10 13:20:57;;;;;;;;;;;33.50;99.90;;;;;;4994514;28;19935;-44
2023/09/10 13:23:22;;;;;;;;;;;33.50;99.90;;;;;;4992714;28;20450;-43
2023/09/10 13:25:48;;;;;;;;;;;33.50;99.90;;;;;;4995505;28;20536;-41
2023/09/10 13:28:14;;;;;;;;;;;33.60;99.90;;;;;;4995770;28;20374;-43
2023/09/10 13:30:39;;;;;;;;;;;33.60;99.90;;;;;;4996484;28;20362;-43
2023/09/10 13:33:05;;;;;;;;;;;33.70;99.90;;;;;;4993976;28;19909;-42
2023/09/10 13:35:32;;;;;;;;;;;33.70;99.90;;;;;;4994127;28;19910;-45
2023/09/10 13:37:58;;;;;;;;;;;33.70;99.90;;;;;;4996106;28;19910;-43
2023/09/10 13:40:24;;;;;;;;;;;33.80;99.90;;;;;;4992427;28;20004;-42
2023/09/10 13:42:50;;;;;;;;;;;33.80;99.80;;;;;;4994489;28;19917;-42
2023/09/10 13:45:16;;;;;;;;;;;33.70;99.70;;;;;;4977030;28;20362;-40
2023/09/10 13:47:41;;;;;;;;;;;33.70;99.90;;;;;;4995280;28;19964;-41
2023/09/10 13:50:07;;;;;;;;;;;33.80;99.50;;;;;;4990892;28;19917;-39
2023/09/10 13:52:32;;;;;;;;;;;33.80;99.50;;;;;;4975351;28;19918;-45
2023/09/10 13:54:58;;;;;;;;;;;33.90;99.60;;;;;;4995681;28;19949;-43
2023/09/10 13:57:23;;;;;;;;;;;33.90;99.50;;;;;;4995057;28;19917;-40
2023/09/10 13:59:49;;;;;;;;;;;33.80;99.50;;;;;;4994055;28;19917;-41
2023/09/10 14:02:14;;;;;;;;;;;33.70;99.90;;;;;;4994758;28;19955;-43
2023/09/10 14:04:40;;;;;;;;;;;33.70;99.70;;;;;;4994521;28;19988;-41
2023/09/10 14:07:06;;;;;;;;;;;33.70;99.70;;;;;;4995550;28;19916;-45
2023/09/10 14:09:31;;;;;;;;;;;33.70;99.70;;;;;;4994559;28;19909;-44
2023/09/10 14:11:57;;;;;;;;;;;33.70;99.60;;;;;;4994545;28;20260;-45